sensor_id;sensor_type;location;lat;lon;timestamp;P1;durP1;ratioP1;P2;durP2;ratioP2
16667;SDS011;8447;52.630;4.734;2022-07-23T00:01:44;6.00;;;1.43;;
16667;SDS011;8447;52.630;4.734;2022-07-23T00:04:12;2.33;;;1.23;;
16667;SDS011;8447;52.630;4.734;2022-07-23T00:06:39;0.90;;;0.90;;
16667;SDS011;8447;52.630;4.734;2022-07-23T00:09:06;1.30;;;1.10;;
16667;SDS011;8447;52.630;4.734;2022-07-23T00:11:33;3.17;;;1.43;;
16667;SDS011;8447;52.630;4.734;2022-07-23T00:13:59;3.73;;;1.40;;
16667;SDS011;8447;52.630;4.734;2022-07-23T00:16:25;3.50;;;1.03;;
16667;SDS011;8447;52.630;4.734;2022-07-23T00:18:52;3.83;;;1.33;;
16667;SDS011;8447;52.630;4.734;2022-07-23T00:21:18;4.77;;;1.50;;
16667;SDS011;8447;52.630;4.734;2022-07-23T00:23:44;1.87;;;1.20;;
16667;SDS011;8447;52.630;4.734;2022-07-23T00:26:12;5.07;;;2.23;;
16667;SDS011;8447;52.630;4.734;2022-07-23T00:28:39;1.30;;;1.20;;
16667;SDS011;8447;52.630;4.734;2022-07-23T00:31:05;8.63;;;2.07;;
16667;SDS011;8447;52.630;4.734;2022-07-23T00:33:31;2.63;;;1.30;;
16667;SDS011;8447;52.630;4.734;2022-07-23T00:35:58;1.87;;;1.57;;
16667;SDS011;8447;52.630;4.734;2022-07-23T00:38:24;5.83;;;1.37;;
16667;SDS011;8447;52.630;4.734;2022-07-23T00:40:50;1.40;;;1.30;;
16667;SDS011;8447;52.630;4.734;2022-07-23T00:43:18;1.33;;;1.23;;
16667;SDS011;8447;52.630;4.734;2022-07-23T00:45:45;1.57;;;1.37;;
16667;SDS011;8447;52.630;4.734;2022-07-23T00:48:12;2.60;;;1.10;;
16667;SDS011;8447;52.630;4.734;2022-07-23T00:50:38;3.17;;;1.20;;
16667;SDS011;8447;52.630;4.734;2022-07-23T00:53:04;3.23;;;1.30;;
16667;SDS011;8447;52.630;4.734;2022-07-23T00:55:31;2.60;;;1.20;;
16667;SDS011;8447;52.630;4.734;2022-07-23T00:57:58;3.07;;;1.00;;
16667;SDS011;8447;52.630;4.734;2022-07-23T01:00:26;1.60;;;0.87;;
16667;SDS011;8447;52.630;4.734;2022-07-23T01:02:52;1.80;;;1.20;;
16667;SDS011;8447;52.630;4.734;2022-07-23T01:05:18;2.00;;;1.20;;
16667;SDS011;8447;52.630;4.734;2022-07-23T01:07:47;1.70;;;1.20;;
16667;SDS011;8447;52.630;4.734;2022-07-23T01:10:13;3.10;;;1.43;;
16667;SDS011;8447;52.630;4.734;2022-07-23T01:12:58;1.60;;;1.37;;
16667;SDS011;8447;52.630;4.734;2022-07-23T01:15:26;4.07;;;1.60;;
16667;SDS011;8447;52.630;4.734;2022-07-23T01:17:52;3.03;;;1.30;;
16667;SDS011;8447;52.630;4.734;2022-07-23T01:20:19;2.03;;;1.20;;
16667;SDS011;8447;52.630;4.734;2022-07-23T01:22:47;2.30;;;1.20;;
16667;SDS011;8447;52.630;4.734;2022-07-23T01:25:13;2.43;;;1.67;;
16667;SDS011;8447;52.630;4.734;2022-07-23T01:27:39;1.37;;;1.27;;
16667;SDS011;8447;52.630;4.734;2022-07-23T01:30:06;1.57;;;1.00;;
16667;SDS011;8447;52.630;4.734;2022-07-23T01:32:33;2.27;;;1.07;;
16667;SDS011;8447;52.630;4.734;2022-07-23T01:34:59;2.40;;;1.40;;
16667;SDS011;8447;52.630;4.734;2022-07-23T01:37:26;1.37;;;1.10;;
16667;SDS011;8447;52.630;4.734;2022-07-23T01:39:54;1.77;;;1.17;;
16667;SDS011;8447;52.630;4.734;2022-07-23T01:42:20;3.07;;;1.50;;
16667;SDS011;8447;52.630;4.734;2022-07-23T01:44:46;2.57;;;1.60;;
16667;SDS011;8447;52.630;4.734;2022-07-23T01:47:13;3.97;;;1.23;;
16667;SDS011;8447;52.630;4.734;2022-07-23T01:49:39;2.53;;;1.10;;
16667;SDS011;8447;52.630;4.734;2022-07-23T01:52:05;2.63;;;1.20;;
16667;SDS011;8447;52.630;4.734;2022-07-23T01:54:36;4.13;;;1.30;;
16667;SDS011;8447;52.630;4.734;2022-07-23T01:57:04;4.10;;;1.87;;
16667;SDS011;8447;52.630;4.734;2022-07-23T01:59:30;2.00;;;1.23;;
16667;SDS011;8447;52.630;4.734;2022-07-23T02:01:57;1.80;;;1.33;;
16667;SDS011;8447;52.630;4.734;2022-07-23T02:04:24;2.33;;;1.27;;
16667;SDS011;8447;52.630;4.734;2022-07-23T02:06:50;4.00;;;2.40;;
16667;SDS011;8447;52.630;4.734;2022-07-23T02:09:17;2.40;;;1.40;;
16667;SDS011;8447;52.630;4.734;2022-07-23T02:11:43;2.00;;;1.30;;
16667;SDS011;8447;52.630;4.734;2022-07-23T02:14:11;3.90;;;1.40;;
16667;SDS011;8447;52.630;4.734;2022-07-23T02:16:38;2.23;;;1.30;;
16667;SDS011;8447;52.630;4.734;2022-07-23T02:19:04;1.70;;;1.40;;
16667;SDS011;8447;52.630;4.734;2022-07-23T02:21:30;1.67;;;1.33;;
16667;SDS011;8447;52.630;4.734;2022-07-23T02:23:57;1.63;;;1.53;;
16667;SDS011;8447;52.630;4.734;2022-07-23T02:26:23;1.93;;;1.70;;
16667;SDS011;8447;52.630;4.734;2022-07-23T02:28:49;4.10;;;1.00;;
16667;SDS011;8447;52.630;4.734;2022-07-23T02:31:19;1.60;;;1.10;;
16667;SDS011;8447;52.630;4.734;2022-07-23T02:33:45;1.33;;;1.10;;
16667;SDS011;8447;52.630;4.734;2022-07-23T02:36:11;2.20;;;1.30;;
16667;SDS011;8447;52.630;4.734;2022-07-23T02:38:38;2.17;;;1.20;;
16667;SDS011;8447;52.630;4.734;2022-07-23T02:41:05;2.47;;;1.20;;
16667;SDS011;8447;52.630;4.734;2022-07-23T02:43:31;1.43;;;1.00;;
16667;SDS011;8447;52.630;4.734;2022-07-23T02:45:57;2.63;;;1.43;;
16667;SDS011;8447;52.630;4.734;2022-07-23T02:48:25;1.40;;;1.10;;
16667;SDS011;8447;52.630;4.734;2022-07-23T02:50:51;1.87;;;1.20;;
16667;SDS011;8447;52.630;4.734;2022-07-23T02:53:21;2.73;;;1.53;;
16667;SDS011;8447;52.630;4.734;2022-07-23T02:55:47;1.63;;;1.53;;
16667;SDS011;8447;52.630;4.734;2022-07-23T02:58:13;1.73;;;1.20;;
16667;SDS011;8447;52.630;4.734;2022-07-23T03:00:41;2.87;;;1.43;;
16667;SDS011;8447;52.630;4.734;2022-07-23T03:03:07;2.47;;;1.40;;
16667;SDS011;8447;52.630;4.734;2022-07-23T03:05:35;1.40;;;1.23;;
16667;SDS011;8447;52.630;4.734;2022-07-23T03:08:02;2.17;;;1.53;;
16667;SDS011;8447;52.630;4.734;2022-07-23T03:10:28;0.97;;;0.83;;
16667;SDS011;8447;52.630;4.734;2022-07-23T03:12:54;1.67;;;1.10;;
16667;SDS011;8447;52.630;4.734;2022-07-23T03:15:21;1.40;;;0.93;;
16667;SDS011;8447;52.630;4.734;2022-07-23T03:17:47;1.37;;;0.80;;
16667;SDS011;8447;52.630;4.734;2022-07-23T03:20:13;1.30;;;1.03;;
16667;SDS011;8447;52.630;4.734;2022-07-23T03:22:41;7.13;;;1.40;;
16667;SDS011;8447;52.630;4.734;2022-07-23T03:25:08;2.00;;;1.03;;
16667;SDS011;8447;52.630;4.734;2022-07-23T03:27:35;2.13;;;1.00;;
16667;SDS011;8447;52.630;4.734;2022-07-23T03:30:01;1.43;;;1.33;;
16667;SDS011;8447;52.630;4.734;2022-07-23T03:32:27;1.77;;;0.97;;
16667;SDS011;8447;52.630;4.734;2022-07-23T03:34:54;1.40;;;1.00;;
16667;SDS011;8447;52.630;4.734;2022-07-23T03:37:20;2.13;;;1.10;;
16667;SDS011;8447;52.630;4.734;2022-07-23T03:39:48;2.20;;;1.20;;
16667;SDS011;8447;52.630;4.734;2022-07-23T03:42:14;1.73;;;0.77;;
16667;SDS011;8447;52.630;4.734;2022-07-23T03:44:41;3.07;;;1.03;;
16667;SDS011;8447;52.630;4.734;2022-07-23T03:47:07;1.77;;;1.20;;
16667;SDS011;8447;52.630;4.734;2022-07-23T03:49:33;1.70;;;0.97;;
16667;SDS011;8447;52.630;4.734;2022-07-23T03:52:00;1.10;;;0.90;;
16667;SDS011;8447;52.630;4.734;2022-07-23T03:54:26;2.30;;;0.90;;
16667;SDS011;8447;52.630;4.734;2022-07-23T03:56:54;1.40;;;1.20;;
16667;SDS011;8447;52.630;4.734;2022-07-23T03:59:20;5.30;;;1.10;;
16667;SDS011;8447;52.630;4.734;2022-07-23T04:01:47;0.70;;;0.70;;
16667;SDS011;8447;52.630;4.734;2022-07-23T04:04:13;1.33;;;1.17;;
16667;SDS011;8447;52.630;4.734;2022-07-23T04:06:39;2.40;;;1.23;;
16667;SDS011;8447;52.630;4.734;2022-07-23T04:09:06;3.03;;;1.37;;
16667;SDS011;8447;52.630;4.734;2022-07-23T04:11:32;1.30;;;1.17;;
16667;SDS011;8447;52.630;4.734;2022-07-23T04:14:00;1.93;;;1.17;;
16667;SDS011;8447;52.630;4.734;2022-07-23T04:16:26;2.40;;;1.00;;
16667;SDS011;8447;52.630;4.734;2022-07-23T04:18:53;2.03;;;1.17;;
16667;SDS011;8447;52.630;4.734;2022-07-23T04:21:19;3.33;;;1.20;;
16667;SDS011;8447;52.630;4.734;2022-07-23T04:23:46;4.17;;;1.10;;
16667;SDS011;8447;52.630;4.734;2022-07-23T04:26:12;1.40;;;1.30;;
16667;SDS011;8447;52.630;4.734;2022-07-23T04:28:39;1.33;;;1.10;;
16667;SDS011;8447;52.630;4.734;2022-07-23T04:31:06;3.47;;;1.10;;
16667;SDS011;8447;52.630;4.734;2022-07-23T04:33:33;2.47;;;1.30;;
16667;SDS011;8447;52.630;4.734;2022-07-23T04:35:59;1.87;;;1.20;;
16667;SDS011;8447;52.630;4.734;2022-07-23T04:38:26;1.90;;;1.20;;
16667;SDS011;8447;52.630;4.734;2022-07-23T04:40:52;1.30;;;1.20;;
16667;SDS011;8447;52.630;4.734;2022-07-23T04:43:19;4.10;;;1.10;;
16667;SDS011;8447;52.630;4.734;2022-07-23T04:45:45;2.40;;;1.33;;
16667;SDS011;8447;52.630;4.734;2022-07-23T04:48:13;2.40;;;1.10;;
16667;SDS011;8447;52.630;4.734;2022-07-23T04:50:39;1.50;;;1.23;;
16667;SDS011;8447;52.630;4.734;2022-07-23T04:53:05;1.80;;;1.40;;
16667;SDS011;8447;52.630;4.734;2022-07-23T04:55:32;2.40;;;1.10;;
16667;SDS011;8447;52.630;4.734;2022-07-23T04:57:58;1.47;;;1.30;;
16667;SDS011;8447;52.630;4.734;2022-07-23T05:00:24;2.13;;;1.37;;
16667;SDS011;8447;52.630;4.734;2022-07-23T05:02:51;3.63;;;1.70;;
16667;SDS011;8447;52.630;4.734;2022-07-23T05:05:18;1.67;;;1.40;;
16667;SDS011;8447;52.630;4.734;2022-07-23T05:07:45;1.60;;;1.30;;
16667;SDS011;8447;52.630;4.734;2022-07-23T05:10:11;1.33;;;1.20;;
16667;SDS011;8447;52.630;4.734;2022-07-23T05:12:37;3.10;;;1.10;;
16667;SDS011;8447;52.630;4.734;2022-07-23T05:15:04;2.10;;;1.20;;
16667;SDS011;8447;52.630;4.734;2022-07-23T05:17:30;1.20;;;1.10;;
16667;SDS011;8447;52.630;4.734;2022-07-23T05:19:57;3.23;;;1.10;;
16667;SDS011;8447;52.630;4.734;2022-07-23T05:22:24;1.90;;;1.03;;
16667;SDS011;8447;52.630;4.734;2022-07-23T05:24:51;1.50;;;0.97;;
16667;SDS011;8447;52.630;4.734;2022-07-23T05:27:17;3.33;;;1.00;;
16667;SDS011;8447;52.630;4.734;2022-07-23T05:29:43;1.87;;;1.40;;
16667;SDS011;8447;52.630;4.734;2022-07-23T05:32:10;2.20;;;1.30;;
16667;SDS011;8447;52.630;4.734;2022-07-23T05:34:36;3.23;;;1.40;;
16667;SDS011;8447;52.630;4.734;2022-07-23T05:37:03;4.73;;;1.47;;
16667;SDS011;8447;52.630;4.734;2022-07-23T05:39:30;4.20;;;1.17;;
16667;SDS011;8447;52.630;4.734;2022-07-23T05:41:57;1.20;;;1.03;;
16667;SDS011;8447;52.630;4.734;2022-07-23T05:44:23;3.87;;;1.33;;
16667;SDS011;8447;52.630;4.734;2022-07-23T05:46:49;4.73;;;1.00;;
16667;SDS011;8447;52.630;4.734;2022-07-23T05:49:16;1.60;;;1.20;;
16667;SDS011;8447;52.630;4.734;2022-07-23T05:51:42;2.57;;;1.00;;
16667;SDS011;8447;52.630;4.734;2022-07-23T05:54:08;2.97;;;0.90;;
16667;SDS011;8447;52.630;4.734;2022-07-23T05:56:36;3.20;;;0.90;;
16667;SDS011;8447;52.630;4.734;2022-07-23T05:59:02;2.03;;;1.00;;
16667;SDS011;8447;52.630;4.734;2022-07-23T06:01:29;3.40;;;1.10;;
16667;SDS011;8447;52.630;4.734;2022-07-23T06:03:55;1.60;;;0.80;;
16667;SDS011;8447;52.630;4.734;2022-07-23T06:06:21;0.97;;;0.93;;
16667;SDS011;8447;52.630;4.734;2022-07-23T06:08:48;3.40;;;0.70;;
16667;SDS011;8447;52.630;4.734;2022-07-23T06:11:14;2.47;;;0.80;;
16667;SDS011;8447;52.630;4.734;2022-07-23T06:13:42;1.10;;;0.80;;
16667;SDS011;8447;52.630;4.734;2022-07-23T06:16:08;1.83;;;0.77;;
16667;SDS011;8447;52.630;4.734;2022-07-23T06:18:34;1.60;;;0.83;;
16667;SDS011;8447;52.630;4.734;2022-07-23T06:21:01;1.13;;;0.90;;
16667;SDS011;8447;52.630;4.734;2022-07-23T06:23:27;1.50;;;1.00;;
16667;SDS011;8447;52.630;4.734;2022-07-23T06:25:53;2.17;;;0.93;;
16667;SDS011;8447;52.630;4.734;2022-07-23T06:28:20;2.47;;;1.00;;
16667;SDS011;8447;52.630;4.734;2022-07-23T06:30:47;1.50;;;0.70;;
16667;SDS011;8447;52.630;4.734;2022-07-23T06:33:14;1.70;;;0.60;;
16667;SDS011;8447;52.630;4.734;2022-07-23T06:35:40;4.40;;;0.90;;
16667;SDS011;8447;52.630;4.734;2022-07-23T06:38:07;4.60;;;0.70;;
16667;SDS011;8447;52.630;4.734;2022-07-23T06:40:33;2.37;;;0.70;;
16667;SDS011;8447;52.630;4.734;2022-07-23T06:42:59;3.73;;;0.73;;
16667;SDS011;8447;52.630;4.734;2022-07-23T06:45:26;0.67;;;0.63;;
16667;SDS011;8447;52.630;4.734;2022-07-23T06:47:53;1.67;;;0.60;;
16667;SDS011;8447;52.630;4.734;2022-07-23T06:50:20;1.90;;;0.70;;
16667;SDS011;8447;52.630;4.734;2022-07-23T06:52:46;1.47;;;0.80;;
16667;SDS011;8447;52.630;4.734;2022-07-23T06:55:12;2.83;;;0.63;;
16667;SDS011;8447;52.630;4.734;2022-07-23T06:57:39;1.60;;;0.63;;
16667;SDS011;8447;52.630;4.734;2022-07-23T07:00:06;2.30;;;0.70;;
16667;SDS011;8447;52.630;4.734;2022-07-23T07:02:32;1.97;;;0.67;;
16667;SDS011;8447;52.630;4.734;2022-07-23T07:05:00;2.00;;;0.40;;
16667;SDS011;8447;52.630;4.734;2022-07-23T07:07:26;1.10;;;0.50;;
16667;SDS011;8447;52.630;4.734;2022-07-23T07:09:53;1.80;;;0.70;;
16667;SDS011;8447;52.630;4.734;2022-07-23T07:12:19;5.37;;;0.90;;
16667;SDS011;8447;52.630;4.734;2022-07-23T07:14:45;1.37;;;0.70;;
16667;SDS011;8447;52.630;4.734;2022-07-23T07:17:12;1.67;;;0.50;;
16667;SDS011;8447;52.630;4.734;2022-07-23T07:19:38;2.20;;;0.47;;
16667;SDS011;8447;52.630;4.734;2022-07-23T07:22:06;2.00;;;0.47;;
16667;SDS011;8447;52.630;4.734;2022-07-23T07:24:32;1.27;;;0.50;;
16667;SDS011;8447;52.630;4.734;2022-07-23T07:26:58;1.23;;;0.60;;
16667;SDS011;8447;52.630;4.734;2022-07-23T07:29:25;1.73;;;0.50;;
16667;SDS011;8447;52.630;4.734;2022-07-23T07:31:52;0.60;;;0.60;;
16667;SDS011;8447;52.630;4.734;2022-07-23T07:34:18;1.47;;;0.40;;
16667;SDS011;8447;52.630;4.734;2022-07-23T07:36:44;1.63;;;0.60;;
16667;SDS011;8447;52.630;4.734;2022-07-23T07:39:12;2.47;;;0.40;;
16667;SDS011;8447;52.630;4.734;2022-07-23T07:41:39;0.50;;;0.50;;
16667;SDS011;8447;52.630;4.734;2022-07-23T07:44:05;1.47;;;0.60;;
16667;SDS011;8447;52.630;4.734;2022-07-23T07:46:32;0.60;;;0.50;;
16667;SDS011;8447;52.630;4.734;2022-07-23T07:48:58;0.87;;;0.50;;
16667;SDS011;8447;52.630;4.734;2022-07-23T07:51:25;0.40;;;0.40;;
16667;SDS011;8447;52.630;4.734;2022-07-23T07:53:51;0.60;;;0.50;;
16667;SDS011;8447;52.630;4.734;2022-07-23T07:56:19;3.90;;;0.70;;
16667;SDS011;8447;52.630;4.734;2022-07-23T07:58:45;2.17;;;0.53;;
16667;SDS011;8447;52.630;4.734;2022-07-23T08:01:12;1.87;;;0.30;;
16667;SDS011;8447;52.630;4.734;2022-07-23T08:03:38;2.10;;;0.60;;
16667;SDS011;8447;52.630;4.734;2022-07-23T08:06:04;1.80;;;0.80;;
16667;SDS011;8447;52.630;4.734;2022-07-23T08:08:31;0.93;;;0.47;;
16667;SDS011;8447;52.630;4.734;2022-07-23T08:10:57;1.00;;;0.47;;
16667;SDS011;8447;52.630;4.734;2022-07-23T08:13:25;0.50;;;0.40;;
16667;SDS011;8447;52.630;4.734;2022-07-23T08:15:51;1.00;;;0.50;;
16667;SDS011;8447;52.630;4.734;2022-07-23T08:18:19;1.60;;;0.53;;
16667;SDS011;8447;52.630;4.734;2022-07-23T08:20:46;3.13;;;0.60;;
16667;SDS011;8447;52.630;4.734;2022-07-23T08:23:13;1.50;;;0.30;;
16667;SDS011;8447;52.630;4.734;2022-07-23T08:25:40;1.43;;;0.50;;
16667;SDS011;8447;52.630;4.734;2022-07-23T08:28:07;0.53;;;0.40;;
16667;SDS011;8447;52.630;4.734;2022-07-23T08:30:36;2.07;;;0.60;;
16667;SDS011;8447;52.630;4.734;2022-07-23T08:33:03;2.13;;;0.50;;
16667;SDS011;8447;52.630;4.734;2022-07-23T08:35:30;0.60;;;0.40;;
16667;SDS011;8447;52.630;4.734;2022-07-23T08:37:57;1.23;;;0.40;;
16667;SDS011;8447;52.630;4.734;2022-07-23T08:40:23;0.83;;;0.30;;
16667;SDS011;8447;52.630;4.734;2022-07-23T08:42:51;0.53;;;0.30;;
16667;SDS011;8447;52.630;4.734;2022-07-23T08:45:18;1.07;;;0.67;;
16667;SDS011;8447;52.630;4.734;2022-07-23T08:47:47;1.13;;;0.40;;
16667;SDS011;8447;52.630;4.734;2022-07-23T08:50:14;1.50;;;0.40;;
16667;SDS011;8447;52.630;4.734;2022-07-23T08:52:40;1.67;;;0.50;;
16667;SDS011;8447;52.630;4.734;2022-07-23T08:55:07;1.37;;;0.50;;
16667;SDS011;8447;52.630;4.734;2022-07-23T08:57:33;2.10;;;0.53;;
16667;SDS011;8447;52.630;4.734;2022-07-23T09:00:00;0.93;;;0.43;;
16667;SDS011;8447;52.630;4.734;2022-07-23T09:02:26;3.07;;;0.70;;
16667;SDS011;8447;52.630;4.734;2022-07-23T09:04:54;1.58;;;0.63;;
16667;SDS011;8447;52.630;4.734;2022-07-23T09:07:20;1.35;;;0.50;;
16667;SDS011;8447;52.630;4.734;2022-07-23T09:09:47;1.30;;;0.50;;
16667;SDS011;8447;52.630;4.734;2022-07-23T09:12:24;0.73;;;0.47;;
16667;SDS011;8447;52.630;4.734;2022-07-23T09:14:51;4.47;;;0.50;;
16667;SDS011;8447;52.630;4.734;2022-07-23T09:17:18;2.20;;;0.50;;
16667;SDS011;8447;52.630;4.734;2022-07-23T09:19:45;0.52;;;0.38;;
16667;SDS011;8447;52.630;4.734;2022-07-23T09:22:20;3.90;;;0.73;;
16667;SDS011;8447;52.630;4.734;2022-07-23T09:25:02;2.10;;;0.50;;
16667;SDS011;8447;52.630;4.734;2022-07-23T09:27:44;1.30;;;0.43;;
16667;SDS011;8447;52.630;4.734;2022-07-23T09:30:11;0.93;;;0.45;;
16667;SDS011;8447;52.630;4.734;2022-07-23T09:32:37;0.98;;;0.50;;
16667;SDS011;8447;52.630;4.734;2022-07-23T09:35:04;3.03;;;0.55;;
16667;SDS011;8447;52.630;4.734;2022-07-23T09:37:32;1.20;;;0.50;;
16667;SDS011;8447;52.630;4.734;2022-07-23T09:40:03;1.48;;;0.52;;
16667;SDS011;8447;52.630;4.734;2022-07-23T09:42:30;2.50;;;0.40;;
16667;SDS011;8447;52.630;4.734;2022-07-23T09:44:57;0.50;;;0.50;;
16667;SDS011;8447;52.630;4.734;2022-07-23T09:47:24;0.85;;;0.43;;
16667;SDS011;8447;52.630;4.734;2022-07-23T09:49:57;1.40;;;0.40;;
16667;SDS011;8447;52.630;4.734;2022-07-23T09:52:25;4.10;;;0.38;;
16667;SDS011;8447;52.630;4.734;2022-07-23T09:54:57;2.10;;;0.40;;
16667;SDS011;8447;52.630;4.734;2022-07-23T09:57:23;3.00;;;0.47;;
16667;SDS011;8447;52.630;4.734;2022-07-23T09:59:49;0.70;;;0.47;;
16667;SDS011;8447;52.630;4.734;2022-07-23T10:02:16;2.70;;;0.50;;
16667;SDS011;8447;52.630;4.734;2022-07-23T10:04:43;0.40;;;0.30;;
16667;SDS011;8447;52.630;4.734;2022-07-23T10:07:09;0.75;;;0.38;;
16667;SDS011;8447;52.630;4.734;2022-07-23T10:09:36;0.82;;;0.50;;
16667;SDS011;8447;52.630;4.734;2022-07-23T10:12:06;0.40;;;0.40;;
16667;SDS011;8447;52.630;4.734;2022-07-23T10:14:48;2.30;;;0.68;;
16667;SDS011;8447;52.630;4.734;2022-07-23T10:17:14;1.60;;;0.43;;
16667;SDS011;8447;52.630;4.734;2022-07-23T10:19:41;0.63;;;0.40;;
16667;SDS011;8447;52.630;4.734;2022-07-23T10:22:08;0.70;;;0.40;;
16667;SDS011;8447;52.630;4.734;2022-07-23T10:24:47;0.70;;;0.40;;
16667;SDS011;8447;52.630;4.734;2022-07-23T10:29:58;0.50;;;0.47;;
16667;SDS011;8447;52.630;4.734;2022-07-23T10:32:30;1.50;;;0.57;;
16667;SDS011;8447;52.630;4.734;2022-07-23T10:35:03;0.73;;;0.47;;
16667;SDS011;8447;52.630;4.734;2022-07-23T10:37:32;0.88;;;0.38;;
16667;SDS011;8447;52.630;4.734;2022-07-23T10:40:11;0.68;;;0.30;;
16667;SDS011;8447;52.630;4.734;2022-07-23T10:42:39;0.60;;;0.40;;
16667;SDS011;8447;52.630;4.734;2022-07-23T10:47:49;0.40;;;0.30;;
16667;SDS011;8447;52.630;4.734;2022-07-23T10:50:17;1.70;;;0.52;;
16667;SDS011;8447;52.630;4.734;2022-07-23T10:52:57;0.77;;;0.45;;
16667;SDS011;8447;52.630;4.734;2022-07-23T10:55:39;1.85;;;0.60;;
16667;SDS011;8447;52.630;4.734;2022-07-23T10:58:06;0.60;;;0.40;;
16667;SDS011;8447;52.630;4.734;2022-07-23T11:00:33;0.30;;;0.30;;
16667;SDS011;8447;52.630;4.734;2022-07-23T11:03:01;2.10;;;0.40;;
16667;SDS011;8447;52.630;4.734;2022-07-23T11:05:39;3.10;;;0.40;;
16667;SDS011;8447;52.630;4.734;2022-07-23T11:10:52;1.42;;;0.50;;
16667;SDS011;8447;52.630;4.734;2022-07-23T11:13:25;0.50;;;0.30;;
16667;SDS011;8447;52.630;4.734;2022-07-23T11:16:04;1.05;;;0.50;;
16667;SDS011;8447;52.630;4.734;2022-07-23T11:23:59;1.08;;;0.40;;
16667;SDS011;8447;52.630;4.734;2022-07-23T11:26:40;1.00;;;0.40;;
16667;SDS011;8447;52.630;4.734;2022-07-23T11:31:51;1.40;;;0.40;;
16667;SDS011;8447;52.630;4.734;2022-07-23T11:34:28;0.93;;;0.50;;
16667;SDS011;8447;52.630;4.734;2022-07-23T11:36:54;2.47;;;0.57;;
16667;SDS011;8447;52.630;4.734;2022-07-23T11:39:22;0.30;;;0.30;;
16667;SDS011;8447;52.630;4.734;2022-07-23T11:41:50;0.90;;;0.60;;
16667;SDS011;8447;52.630;4.734;2022-07-23T11:44:24;1.75;;;0.47;;
16667;SDS011;8447;52.630;4.734;2022-07-23T11:46:54;0.73;;;0.32;;
16667;SDS011;8447;52.630;4.734;2022-07-23T11:49:20;0.93;;;0.35;;
16667;SDS011;8447;52.630;4.734;2022-07-23T11:51:46;0.50;;;0.30;;
16667;SDS011;8447;52.630;4.734;2022-07-23T11:54:13;0.30;;;0.30;;
16667;SDS011;8447;52.630;4.734;2022-07-23T11:59:37;5.72;;;0.60;;
16667;SDS011;8447;52.630;4.734;2022-07-23T12:02:05;0.80;;;0.47;;
16667;SDS011;8447;52.630;4.734;2022-07-23T12:04:38;0.50;;;0.40;;
16667;SDS011;8447;52.630;4.734;2022-07-23T12:07:04;0.82;;;0.40;;
16667;SDS011;8447;52.630;4.734;2022-07-23T12:09:31;0.43;;;0.35;;
16667;SDS011;8447;52.630;4.734;2022-07-23T12:11:58;0.52;;;0.40;;
16667;SDS011;8447;52.630;4.734;2022-07-23T12:14:24;0.77;;;0.38;;
16667;SDS011;8447;52.630;4.734;2022-07-23T12:19:33;1.17;;;0.40;;
16667;SDS011;8447;52.630;4.734;2022-07-23T12:21:59;2.78;;;0.65;;
16667;SDS011;8447;52.630;4.734;2022-07-23T12:24:26;1.65;;;0.50;;
16667;SDS011;8447;52.630;4.734;2022-07-23T12:27:07;1.02;;;0.50;;
16667;SDS011;8447;52.630;4.734;2022-07-23T12:29:34;1.33;;;0.50;;
16667;SDS011;8447;52.630;4.734;2022-07-23T12:32:00;2.55;;;0.43;;
16667;SDS011;8447;52.630;4.734;2022-07-23T12:34:27;1.52;;;0.40;;
16667;SDS011;8447;52.630;4.734;2022-07-23T12:36:54;0.68;;;0.40;;
16667;SDS011;8447;52.630;4.734;2022-07-23T12:39:29;1.00;;;0.47;;
16667;SDS011;8447;52.630;4.734;2022-07-23T12:41:55;1.10;;;0.50;;
16667;SDS011;8447;52.630;4.734;2022-07-23T12:44:21;2.47;;;0.50;;
16667;SDS011;8447;52.630;4.734;2022-07-23T12:46:49;0.40;;;0.30;;
16667;SDS011;8447;52.630;4.734;2022-07-23T12:49:24;1.20;;;0.43;;
16667;SDS011;8447;52.630;4.734;2022-07-23T12:51:51;2.10;;;0.60;;
16667;SDS011;8447;52.630;4.734;2022-07-23T12:54:19;2.93;;;0.40;;
16667;SDS011;8447;52.630;4.734;2022-07-23T12:56:52;0.50;;;0.40;;
16667;SDS011;8447;52.630;4.734;2022-07-23T12:59:19;0.90;;;0.60;;
16667;SDS011;8447;52.630;4.734;2022-07-23T13:01:52;2.37;;;0.47;;
16667;SDS011;8447;52.630;4.734;2022-07-23T13:04:20;0.30;;;0.30;;
16667;SDS011;8447;52.630;4.734;2022-07-23T13:06:48;2.40;;;0.50;;
16667;SDS011;8447;52.630;4.734;2022-07-23T13:09:15;1.90;;;0.43;;
16667;SDS011;8447;52.630;4.734;2022-07-23T13:11:43;0.40;;;0.40;;
16667;SDS011;8447;52.630;4.734;2022-07-23T13:14:10;0.90;;;0.50;;
16667;SDS011;8447;52.630;4.734;2022-07-23T13:16:37;0.97;;;0.73;;
16667;SDS011;8447;52.630;4.734;2022-07-23T13:19:03;1.47;;;0.50;;
16667;SDS011;8447;52.630;4.734;2022-07-23T13:21:29;1.37;;;0.57;;
16667;SDS011;8447;52.630;4.734;2022-07-23T13:23:56;1.27;;;0.30;;
16667;SDS011;8447;52.630;4.734;2022-07-23T13:26:22;1.63;;;0.63;;
16667;SDS011;8447;52.630;4.734;2022-07-23T13:28:50;1.87;;;0.37;;
16667;SDS011;8447;52.630;4.734;2022-07-23T13:31:16;1.07;;;0.30;;
16667;SDS011;8447;52.630;4.734;2022-07-23T13:33:43;1.20;;;0.67;;
16667;SDS011;8447;52.630;4.734;2022-07-23T13:36:09;2.03;;;0.50;;
16667;SDS011;8447;52.630;4.734;2022-07-23T13:38:35;2.47;;;0.53;;
16667;SDS011;8447;52.630;4.734;2022-07-23T13:41:02;0.60;;;0.40;;
16667;SDS011;8447;52.630;4.734;2022-07-23T13:43:28;2.20;;;0.63;;
16667;SDS011;8447;52.630;4.734;2022-07-23T13:45:56;0.77;;;0.40;;
16667;SDS011;8447;52.630;4.734;2022-07-23T13:48:22;2.83;;;0.50;;
16667;SDS011;8447;52.630;4.734;2022-07-23T13:50:49;0.60;;;0.40;;
16667;SDS011;8447;52.630;4.734;2022-07-23T13:53:17;1.87;;;0.60;;
16667;SDS011;8447;52.630;4.734;2022-07-23T13:55:43;1.70;;;1.20;;
16667;SDS011;8447;52.630;4.734;2022-07-23T13:58:10;1.93;;;0.60;;
16667;SDS011;8447;52.630;4.734;2022-07-23T14:00:37;1.27;;;0.60;;
16667;SDS011;8447;52.630;4.734;2022-07-23T14:03:05;2.30;;;0.70;;
16667;SDS011;8447;52.630;4.734;2022-07-23T14:05:32;4.07;;;0.57;;
16667;SDS011;8447;52.630;4.734;2022-07-23T14:07:58;1.30;;;0.50;;
16667;SDS011;8447;52.630;4.734;2022-07-23T14:10:25;1.77;;;0.57;;
16667;SDS011;8447;52.630;4.734;2022-07-23T14:12:52;1.30;;;0.70;;
16667;SDS011;8447;52.630;4.734;2022-07-23T14:15:21;2.30;;;0.50;;
16667;SDS011;8447;52.630;4.734;2022-07-23T14:17:47;1.50;;;0.57;;
16667;SDS011;8447;52.630;4.734;2022-07-23T14:20:15;0.83;;;0.70;;
16667;SDS011;8447;52.630;4.734;2022-07-23T14:22:42;2.17;;;0.50;;
16667;SDS011;8447;52.630;4.734;2022-07-23T14:25:09;0.83;;;0.60;;
16667;SDS011;8447;52.630;4.734;2022-07-23T14:27:35;1.53;;;0.73;;
16667;SDS011;8447;52.630;4.734;2022-07-23T14:30:03;0.63;;;0.63;;
16667;SDS011;8447;52.630;4.734;2022-07-23T14:32:30;0.83;;;0.50;;
16667;SDS011;8447;52.630;4.734;2022-07-23T14:34:56;1.27;;;0.50;;
16667;SDS011;8447;52.630;4.734;2022-07-23T14:37:24;0.63;;;0.60;;
16667;SDS011;8447;52.630;4.734;2022-07-23T14:39:51;2.23;;;0.60;;
16667;SDS011;8447;52.630;4.734;2022-07-23T14:42:17;0.97;;;0.60;;
16667;SDS011;8447;52.630;4.734;2022-07-23T14:44:44;2.17;;;0.67;;
16667;SDS011;8447;52.630;4.734;2022-07-23T14:47:10;2.70;;;0.60;;
16667;SDS011;8447;52.630;4.734;2022-07-23T14:49:37;1.47;;;0.50;;
16667;SDS011;8447;52.630;4.734;2022-07-23T14:52:04;0.53;;;0.43;;
16667;SDS011;8447;52.630;4.734;2022-07-23T14:54:32;0.50;;;0.50;;
16667;SDS011;8447;52.630;4.734;2022-07-23T14:56:59;1.30;;;0.60;;
16667;SDS011;8447;52.630;4.734;2022-07-23T14:59:27;3.10;;;0.63;;
16667;SDS011;8447;52.630;4.734;2022-07-23T15:01:55;1.00;;;0.80;;
16667;SDS011;8447;52.630;4.734;2022-07-23T15:04:21;0.70;;;0.50;;
16667;SDS011;8447;52.630;4.734;2022-07-23T15:06:48;2.00;;;0.60;;
16667;SDS011;8447;52.630;4.734;2022-07-23T15:09:14;1.10;;;0.60;;
16667;SDS011;8447;52.630;4.734;2022-07-23T15:11:42;0.50;;;0.50;;
16667;SDS011;8447;52.630;4.734;2022-07-23T15:14:09;1.17;;;0.60;;
16667;SDS011;8447;52.630;4.734;2022-07-23T15:16:35;2.40;;;0.70;;
16667;SDS011;8447;52.630;4.734;2022-07-23T15:19:02;1.63;;;0.70;;
16667;SDS011;8447;52.630;4.734;2022-07-23T15:21:29;5.20;;;1.13;;
16667;SDS011;8447;52.630;4.734;2022-07-23T15:23:55;1.27;;;0.67;;